CDT,Max TemperatureF,Mean TemperatureF,Min TemperatureF,Max Dew PointF,MeanDew PointF,Min DewpointF,Max Humidity, Mean Humidity, Min Humidity, Max Sea Level PressureIn, Mean Sea Level PressureIn, Min Sea Level PressureIn, Max VisibilityMiles, Mean VisibilityMiles, Min VisibilityMiles, Max Wind SpeedMPH, Mean Wind SpeedMPH, Max Gust SpeedMPH,PrecipitationIn, CloudCover, Events, WindDirDegrees
2012-10-1,68,53,38,45,34,27,82,52,21,30.16,30.07,29.99,10,10,7,22,11,28,0.00,2,,330
2012-10-2,79,58,37,38,32,28,71,45,19,29.93,29.77,29.68,10,10,10,26,10,35,0.00,0,,205
2012-10-3,51,42,33,41,37,32,85,75,65,30.09,29.97,29.82,10,10,2,33,18,44,0.09,6,Rain-Snow,6
2012-10-4,43,37,31,34,32,25,100,82,64,30.30,30.15,30.04,10,7,2,32,20,40,0.17,7,Rain-Snow,321
2012-10-5,39,33,26,31,26,21,89,74,59,30.38,30.31,30.26,10,9,2,28,18,35,T,5,Snow,320
2012-10-6,47,36,25,31,25,17,92,62,31,30.44,30.34,30.19,10,10,9,17,8,21,0.00,3,,303
2012-10-7,56,44,31,33,26,21,70,50,30,30.16,29.94,29.76,10,10,10,16,9,21,0.00,4,,250
2012-10-8,56,49,41,41,36,29,83,62,41,29.74,29.64,29.54,10,10,10,33,15,43,T,6,,275
2012-10-9,46,39,32,32,28,23,89,65,41,30.07,29.90,29.72,10,10,8,30,17,36,T,6,Snow,311
2012-10-10,48,38,28,34,30,26,92,71,49,30.06,29.98,29.83,10,10,10,17,8,21,T,5,Rain,312
2012-10-11,45,33,21,34,27,18,89,63,37,30.42,30.21,29.96,10,10,10,18,8,24,0.00,3,,335
2012-10-12,53,37,20,22,19,16,84,54,24,30.41,30.14,29.76,10,10,10,35,18,41,0.00,1,,172
2012-10-13,66,50,33,38,34,29,82,58,34,29.90,29.73,29.68,10,10,8,18,8,23,0.00,0,,293
2012-10-14,59,45,31,36,33,30,92,66,40,30.00,29.96,29.90,10,9,6,14,6,18,0.00,0,,334
2012-10-15,75,54,32,43,36,30,89,57,25,29.94,29.73,29.57,10,10,10,23,12,29,T,2,Rain,193
2012-10-16,71,59,46,48,45,42,93,65,37,29.58,29.42,29.25,10,10,8,15,7,18,0.01,2,Rain,225
2012-10-17,55,49,42,51,42,37,93,85,76,29.30,29.24,29.19,10,9,4,39,23,52,0.54,8,Rain,290
2012-10-18,45,43,40,44,40,37,100,91,82,29.77,29.51,29.25,10,6,1,43,33,54,0.27,8,Rain,331
2012-10-19,43,41,38,39,37,35,93,85,76,29.86,29.79,29.73,10,10,10,33,13,41,0.01,8,Rain,341
2012-10-20,57,47,36,45,38,34,100,78,55,29.74,29.65,29.58,10,7,0,23,11,28,T,5,Fog,170
2012-10-21,52,47,41,47,42,35,96,79,61,30.08,29.85,29.68,10,10,10,24,9,28,0.00,3,,1
2012-10-22,48,45,41,40,35,30,89,70,50,30.11,30.01,29.87,10,10,10,20,11,23,0.00,6,,50
2012-10-23,53,48,42,52,47,37,100,91,82,29.88,29.70,29.58,10,6,1,24,10,30,0.21,8,Rain-Thunderstorm,168
2012-10-24,42,37,32,37,30,25,86,78,70,30.07,29.99,29.88,10,10,10,18,12,23,0.00,4,,313
2012-10-25,37,34,31,26,23,21,78,65,52,30.23,30.09,30.02,10,10,10,32,22,40,0.00,7,,312
2012-10-26,37,32,26,22,20,17,75,61,47,30.36,30.31,30.24,10,10,9,28,15,38,T,7,,288
2012-10-27,32,26,19,27,24,16,92,81,69,30.35,30.27,30.21,10,4,0,12,5,14,0.13,7,Fog-Snow,60
2012-10-28,33,29,25,31,25,23,100,92,84,30.32,30.25,30.13,10,9,4,15,9,20,0.00,8,,89
2012-10-29,51,42,33,37,33,30,96,75,54,30.15,30.12,30.09,10,8,5,16,10,21,0.01,5,Rain,118
2012-10-30,47,41,34,39,35,29,92,81,70,30.12,30.09,30.05,10,9,5,20,11,23,0.10,6,Rain,139
2012-10-31,59,45,30,44,36,28,92,73,53,30.12,30.03,29.95,10,9,4,22,9,26,0.00,5,,6